Time;durP1;ratioP1;P1;durP2;ratioP2;P2;SDS_P1;SDS_P2;PMS_P1;PMS_P2;Temp;Humidity;BMP_temperature;BMP_pressure;BME280_temperature;BME280_humidity;BME280_pressure;Samples;Min_cycle;Max_cycle;Signal;HPM_P1;HPM_P2
2022/12/21 00:01:51;;;;;;;22.67;15.25;;;7.50;99.90;;;;;;4953583;29;20027;-52
2022/12/21 00:04:17;;;;;;;23.63;17.08;;;7.60;99.90;;;;;;4954086;29;20023;-55
2022/12/21 00:06:42;;;;;;;81.38;47.13;;;7.60;99.90;;;;;;4954478;29;20058;-56
2022/12/21 00:09:11;;;;;;;27.48;16.65;;;7.60;99.90;;;;;;4954649;29;20035;-57
2022/12/21 00:11:37;;;;;;;26.77;17.58;;;7.70;99.90;;;;;;4971702;28;20399;-56
2022/12/21 00:14:04;;;;;;;27.95;17.10;;;7.70;99.90;;;;;;4974346;28;20031;-56
2022/12/21 00:16:36;;;;;;;26.00;16.08;;;7.60;99.90;;;;;;4975260;28;20019;-57
2022/12/21 00:19:02;;;;;;;26.73;18.00;;;7.70;99.90;;;;;;4973793;28;20085;-58
2022/12/21 00:21:30;;;;;;;29.38;17.40;;;7.70;99.90;;;;;;4974924;28;20097;-54
2022/12/21 00:23:58;;;;;;;21.83;15.82;;;7.70;99.90;;;;;;4974181;28;20030;-55
2022/12/21 00:26:24;;;;;;;23.85;15.85;;;7.70;99.90;;;;;;4989986;28;20503;-57
2022/12/21 00:28:53;;;;;;;24.88;17.33;;;7.80;99.90;;;;;;4974866;28;20069;-55
2022/12/21 00:31:29;;;;;;;28.45;17.15;;;7.70;99.90;;;;;;4974753;28;20015;-55
2022/12/21 00:33:55;;;;;;;22.55;16.17;;;7.70;99.90;;;;;;4972833;28;20023;-57
2022/12/21 00:36:23;;;;;;;27.90;16.55;;;7.70;99.90;;;;;;4989439;28;20062;-56
2022/12/21 00:38:48;;;;;;;25.50;16.60;;;7.80;99.90;;;;;;4974826;28;20033;-53
2022/12/21 00:41:17;;;;;;;27.23;17.33;;;7.80;99.90;;;;;;4989567;28;20429;-53
2022/12/21 00:43:43;;;;;;;25.77;16.55;;;7.80;99.90;;;;;;4974028;28;20053;-56
2022/12/21 00:46:20;;;;;;;21.73;15.70;;;7.80;99.90;;;;;;4974814;28;20027;-58
2022/12/21 00:48:46;;;;;;;22.90;16.65;;;7.80;99.90;;;;;;4974450;28;20049;-54
2022/12/21 00:51:17;;;;;;;28.23;15.57;;;7.90;99.90;;;;;;4971635;28;20031;-56
2022/12/21 00:53:44;;;;;;;25.33;16.63;;;7.80;99.90;;;;;;4973797;28;20113;-55
2022/12/21 00:56:11;;;;;;;20.92;15.30;;;7.80;99.90;;;;;;4973663;28;20023;-58
2022/12/21 00:58:37;;;;;;;25.88;16.48;;;7.80;99.90;;;;;;4974312;28;20030;-55
2022/12/21 01:01:27;;;;;;;23.88;16.73;;;7.80;99.90;;;;;;4972941;28;20562;-54
2022/12/21 01:03:54;;;;;;;23.35;15.05;;;7.80;99.90;;;;;;4973439;28;20487;-53
2022/12/21 01:06:23;;;;;;;21.52;16.00;;;7.80;99.90;;;;;;4974365;28;20029;-58
2022/12/21 01:08:50;;;;;;;20.40;14.93;;;7.80;99.90;;;;;;4974222;28;20147;-55
2022/12/21 01:11:17;;;;;;;24.95;16.17;;;7.80;99.90;;;;;;4995990;23;20042;-45
2022/12/21 01:13:43;;;;;;;19.63;15.65;;;7.80;99.90;;;;;;5012748;28;20437;-53
2022/12/21 01:16:13;;;;;;;21.27;15.60;;;7.80;99.90;;;;;;5013282;28;20029;-47
2022/12/21 01:18:39;;;;;;;24.58;16.75;;;7.90;99.90;;;;;;5013219;28;20079;-47
2022/12/21 01:21:04;;;;;;;24.13;16.23;;;7.90;99.90;;;;;;5016938;28;20029;-46
2022/12/21 01:23:30;;;;;;;25.00;17.52;;;8.00;99.90;;;;;;5031893;28;20316;-49
2022/12/21 01:25:55;;;;;;;22.55;16.23;;;7.90;99.90;;;;;;5032940;28;20083;-48
2022/12/21 01:28:21;;;;;;;25.05;16.20;;;8.00;99.90;;;;;;5032777;28;20065;-51
2022/12/21 01:30:46;;;;;;;26.25;16.58;;;8.00;99.90;;;;;;5014827;28;20017;-51
2022/12/21 01:33:17;;;;;;;19.23;14.77;;;8.00;99.90;;;;;;5031992;28;20032;-49
2022/12/21 01:35:43;;;;;;;22.40;15.75;;;8.00;99.90;;;;;;5032669;28;20030;-47
2022/12/21 01:38:11;;;;;;;24.05;17.17;;;8.00;99.90;;;;;;5032612;28;20033;-50
2022/12/21 01:40:37;;;;;;;24.08;16.15;;;8.10;99.90;;;;;;5032555;28;20559;-48
2022/12/21 01:43:37;;;;;;;24.08;16.23;;;8.10;99.90;;;;;;5013922;28;20032;-47
2022/12/21 01:46:02;;;;;;;26.77;15.73;;;8.10;99.90;;;;;;5014742;28;20478;-46
2022/12/21 01:48:28;;;;;;;29.48;16.05;;;8.20;99.90;;;;;;5032058;28;20037;-51
2022/12/21 01:50:59;;;;;;;25.42;16.10;;;8.20;99.90;;;;;;5030649;28;20509;-48
2022/12/21 01:53:36;;;;;;;22.35;15.35;;;8.20;99.90;;;;;;5013884;28;20025;-49
2022/12/21 01:56:08;;;;;;;21.88;16.02;;;8.20;99.90;;;;;;5014635;28;20021;-47
2022/12/21 01:58:35;;;;;;;27.92;16.45;;;8.20;99.90;;;;;;5032412;28;20032;-51
2022/12/21 02:01:02;;;;;;;25.48;16.25;;;8.30;99.90;;;;;;5032538;28;20017;-48
2022/12/21 02:03:34;;;;;;;26.92;15.73;;;8.30;99.90;;;;;;5031480;28;20448;-49
2022/12/21 02:06:29;;;;;;;22.35;16.52;;;8.30;99.90;;;;;;5032214;28;20029;-50
2022/12/21 02:08:57;;;;;;;26.58;16.50;;;8.30;99.90;;;;;;5031827;28;20029;-49
2022/12/21 02:11:23;;;;;;;23.73;15.93;;;8.30;99.90;;;;;;5031953;28;20025;-48
2022/12/21 02:13:49;;;;;;;25.88;18.02;;;8.30;99.90;;;;;;5031241;28;20118;-50
2022/12/21 02:16:19;;;;;;;27.40;17.52;;;8.40;99.90;;;;;;5031988;28;20053;-45
2022/12/21 02:19:03;;;;;;;22.23;16.40;;;8.40;99.90;;;;;;5030656;28;20120;-47
2022/12/21 02:21:31;;;;;;;23.27;17.38;;;8.40;99.90;;;;;;5031765;28;20036;-49
2022/12/21 02:24:27;;;;;;;28.35;17.55;;;8.40;99.90;;;;;;5031130;28;20057;-46
2022/12/21 02:27:07;;;;;;;21.73;17.17;;;8.40;99.90;;;;;;5031809;28;20386;-46
2022/12/21 02:30:01;;;;;;;27.70;18.27;;;8.40;99.90;;;;;;5031611;28;20034;-45
2022/12/21 02:32:46;;;;;;;25.52;18.80;;;8.40;99.90;;;;;;5030954;28;20022;-49
2022/12/21 02:35:37;;;;;;;33.58;21.13;;;8.40;99.90;;;;;;5031869;28;20109;-50
2022/12/21 02:38:31;;;;;;;30.27;20.60;;;8.40;99.90;;;;;;5031371;28;20033;-51
2022/12/21 02:41:22;;;;;;;33.10;21.52;;;8.40;99.90;;;;;;5031431;28;20033;-53
2022/12/21 02:47:05;;;;;;;30.90;21.90;;;8.40;99.90;;;;;;5031297;28;20511;-50
2022/12/21 02:49:52;;;;;;;33.00;23.67;;;8.40;99.90;;;;;;5031259;28;20112;-50
2022/12/21 02:52:40;;;;;;;31.42;24.17;;;8.40;99.90;;;;;;5030318;28;20029;-47
2022/12/21 02:55:10;;;;;;;38.85;24.05;;;8.40;99.90;;;;;;5031337;28;20021;-45
2022/12/21 02:57:39;;;;;;;32.92;23.05;;;8.50;99.90;;;;;;5031084;28;20092;-46
2022/12/21 03:00:09;;;;;;;37.90;24.30;;;8.50;99.90;;;;;;5031059;28;20030;-49
2022/12/21 03:06:24;;;;;;;42.75;26.13;;;8.50;99.90;;;;;;5031423;28;20072;-49
2022/12/21 03:09:25;;;;;;;38.65;24.35;;;8.50;99.90;;;;;;5030679;28;20068;-47
2022/12/21 03:12:06;;;;;;;46.55;24.33;;;8.60;99.90;;;;;;5031156;28;20029;-50
2022/12/21 03:14:54;;;;;;;35.00;24.92;;;8.60;99.90;;;;;;5031352;28;20017;-51
2022/12/21 03:17:43;;;;;;;33.75;24.55;;;8.60;99.90;;;;;;5031039;28;20388;-49
2022/12/21 03:20:23;;;;;;;39.28;24.33;;;8.60;99.90;;;;;;5035124;28;20033;-45
2022/12/21 03:22:58;;;;;;;35.72;24.15;;;8.60;99.90;;;;;;5034592;28;20090;-49
2022/12/21 03:25:40;;;;;;;31.75;23.55;;;8.60;99.90;;;;;;5035101;28;20116;-47
2022/12/21 03:28:12;;;;;;;35.13;23.10;;;8.60;99.90;;;;;;5035015;28;20076;-51
2022/12/21 03:30:42;;;;;;;30.08;21.63;;;8.60;99.90;;;;;;5035082;28;20013;-52
2022/12/21 03:33:14;;;;;;;32.58;23.33;;;8.60;99.90;;;;;;5016745;28;20424;-50
2022/12/21 03:35:42;;;;;;;32.70;22.15;;;8.60;99.90;;;;;;5034966;28;20026;-48
2022/12/21 03:38:15;;;;;;;34.15;21.33;;;8.70;99.90;;;;;;5034894;28;20453;-45
2022/12/21 03:40:45;;;;;;;32.20;21.67;;;8.60;99.90;;;;;;5034649;28;20036;-47
2022/12/21 03:43:30;;;;;;;33.85;23.27;;;8.70;99.90;;;;;;5034047;28;20079;-49
2022/12/21 03:46:00;;;;;;;26.95;20.02;;;8.70;99.90;;;;;;5017180;28;20029;-47
2022/12/21 03:48:47;;;;;;;32.50;21.80;;;8.70;99.90;;;;;;5035182;28;20103;-50
2022/12/21 03:51:28;;;;;;;29.65;20.15;;;8.70;99.90;;;;;;5015142;28;20022;-47
2022/12/21 03:53:53;;;;;;;28.35;19.65;;;8.70;99.90;;;;;;5033909;28;20029;-48
2022/12/21 03:56:31;;;;;;;38.78;21.60;;;8.70;99.90;;;;;;5034591;28;20021;-47
2022/12/21 03:58:59;;;;;;;31.15;21.75;;;8.70;99.90;;;;;;5017354;28;20037;-48
2022/12/21 04:01:53;;;;;;;30.95;20.17;;;8.70;99.90;;;;;;5034413;28;20052;-50
2022/12/21 04:04:38;;;;;;;28.42;20.73;;;8.70;99.90;;;;;;5034225;28;20456;-50
2022/12/21 04:07:06;;;;;;;30.70;20.70;;;8.70;99.90;;;;;;5034275;28;20393;-50
2022/12/21 04:09:31;;;;;;;29.45;20.77;;;8.70;99.90;;;;;;5034480;28;20540;-50
2022/12/21 04:14:43;;;;;;;30.13;20.48;;;8.70;99.90;;;;;;5034536;28;20029;-47
2022/12/21 04:17:09;;;;;;;28.48;19.85;;;8.70;99.90;;;;;;5033971;28;20034;-47
2022/12/21 04:30:31;;;;;;;29.52;20.40;;;8.80;99.90;;;;;;5032724;28;20037;-47
2022/12/21 04:32:57;;;;;;;32.97;20.30;;;8.80;99.90;;;;;;5033263;28;20409;-47
2022/12/21 04:35:23;;;;;;;30.98;21.90;;;8.80;99.90;;;;;;5033706;28;20495;-50
2022/12/21 04:37:48;;;;;;;30.45;20.90;;;8.80;99.90;;;;;;5015687;28;20453;-53
2022/12/21 04:40:14;;;;;;;27.83;18.85;;;8.80;99.90;;;;;;5032180;28;20052;-49
2022/12/21 04:42:39;;;;;;;33.33;20.35;;;8.90;99.90;;;;;;5032704;28;20428;-49
2022/12/21 04:45:06;;;;;;;27.63;19.98;;;8.90;99.90;;;;;;5033431;28;20503;-49
2022/12/21 04:47:31;;;;;;;28.10;19.17;;;8.90;99.90;;;;;;5033196;28;20091;-50
2022/12/21 04:49:57;;;;;;;27.65;20.10;;;8.90;99.90;;;;;;5031578;28;20428;-48
2022/12/21 04:52:22;;;;;;;27.08;18.02;;;8.90;99.90;;;;;;5014679;28;20136;-47
2022/12/21 04:54:48;;;;;;;28.48;20.15;;;8.90;99.90;;;;;;5033334;28;20029;-51
2022/12/21 04:57:13;;;;;;;26.98;18.77;;;8.90;99.90;;;;;;5033355;28;20026;-50
2022/12/21 04:59:39;;;;;;;30.00;20.63;;;8.90;99.90;;;;;;5033126;28;20090;-46
2022/12/21 05:02:04;;;;;;;24.73;18.50;;;8.90;99.90;;;;;;5032382;28;20022;-49
2022/12/21 05:04:30;;;;;;;29.05;18.10;;;8.90;99.90;;;;;;5032882;28;20079;-49
2022/12/21 05:06:56;;;;;;;29.92;16.95;;;8.90;99.90;;;;;;5033086;28;20120;-46
2022/12/21 05:09:22;;;;;;;23.67;17.55;;;8.90;99.90;;;;;;5033012;28;20219;-47
2022/12/21 05:11:48;;;;;;;22.70;17.80;;;8.90;99.90;;;;;;5032485;28;20627;-51
2022/12/21 05:14:14;;;;;;;25.38;17.85;;;8.90;99.90;;;;;;5032443;28;20113;-48
2022/12/21 05:16:39;;;;;;;29.25;17.25;;;9.00;99.90;;;;;;5032720;28;20497;-50
2022/12/21 05:19:05;;;;;;;29.70;18.70;;;9.00;99.90;;;;;;5033385;28;20037;-49
2022/12/21 05:21:31;;;;;;;24.20;17.65;;;8.90;99.90;;;;;;5032660;28;20040;-51
2022/12/21 05:23:57;;;;;;;21.98;17.15;;;9.00;99.90;;;;;;5014280;28;20065;-47
2022/12/21 05:26:23;;;;;;;29.42;17.92;;;9.00;99.90;;;;;;5032615;28;20054;-50
2022/12/21 05:28:48;;;;;;;24.15;17.13;;;9.00;99.90;;;;;;5032694;28;20478;-49
2022/12/21 05:31:16;;;;;;;23.05;17.10;;;9.00;99.90;;;;;;5032861;28;20022;-49
2022/12/21 05:33:42;;;;;;;24.23;17.90;;;9.00;99.90;;;;;;5013984;28;20021;-48
2022/12/21 05:36:11;;;;;;;27.45;17.90;;;9.00;99.90;;;;;;5032547;28;20021;-49
2022/12/21 05:38:36;;;;;;;26.73;17.45;;;9.00;99.90;;;;;;5014623;28;20413;-47
2022/12/21 05:41:02;;;;;;;24.10;15.27;;;9.00;99.90;;;;;;5032119;28;20106;-51
2022/12/21 05:43:28;;;;;;;22.77;16.88;;;9.00;99.90;;;;;;5031608;28;20386;-53
2022/12/21 05:45:53;;;;;;;26.90;17.52;;;9.00;99.90;;;;;;5032379;28;20100;-46
2022/12/21 05:48:19;;;;;;;24.35;16.17;;;9.00;99.90;;;;;;5032059;28;20030;-50
2022/12/21 05:50:44;;;;;;;26.23;17.40;;;9.00;99.90;;;;;;5030658;28;20032;-48
2022/12/21 05:53:10;;;;;;;22.00;16.60;;;9.00;99.90;;;;;;5031481;28;20013;-53
2022/12/21 05:55:35;;;;;;;23.92;17.85;;;9.00;99.90;;;;;;5032006;28;20025;-50
2022/12/21 05:58:01;;;;;;;26.00;18.15;;;9.00;99.90;;;;;;5032146;28;20055;-51
2022/12/21 06:00:27;;;;;;;23.42;18.83;;;9.00;99.90;;;;;;5032337;28;20478;-51
2022/12/21 06:02:54;;;;;;;24.30;18.77;;;8.90;99.90;;;;;;5031633;28;20397;-49
2022/12/21 06:05:20;;;;;;;33.50;19.08;;;8.90;99.90;;;;;;5031829;28;20029;-48
2022/12/21 06:07:45;;;;;;;31.95;20.90;;;8.90;99.90;;;;;;5014215;28;20025;-49
2022/12/21 06:10:11;;;;;;;31.13;20.13;;;8.90;99.90;;;;;;5014378;28;20393;-48
2022/12/21 06:12:36;;;;;;;31.35;20.27;;;8.90;99.90;;;;;;5031327;28;20401;-49
2022/12/21 06:15:02;;;;;;;30.80;19.50;;;8.90;99.90;;;;;;5030531;28;20128;-49
2022/12/21 06:17:29;;;;;;;29.13;20.02;;;9.00;99.90;;;;;;5032118;28;20032;-49
2022/12/21 06:19:55;;;;;;;26.95;19.13;;;9.00;99.90;;;;;;5031758;28;20033;-52
2022/12/21 06:22:20;;;;;;;27.75;18.85;;;9.00;99.90;;;;;;5013058;28;20041;-51
2022/12/21 06:24:46;;;;;;;25.42;19.13;;;9.00;99.90;;;;;;5031700;28;20086;-48
2022/12/21 06:27:11;;;;;;;26.50;18.40;;;9.10;99.90;;;;;;5031290;28;20036;-47
2022/12/21 06:29:37;;;;;;;26.48;20.02;;;9.00;99.90;;;;;;5013669;28;20417;-48
2022/12/21 06:32:03;;;;;;;27.40;19.17;;;9.10;99.90;;;;;;5030465;28;20355;-49
2022/12/21 06:34:29;;;;;;;27.63;19.30;;;9.10;99.90;;;;;;5031357;28;20564;-51
2022/12/21 06:36:54;;;;;;;28.33;18.42;;;9.10;99.90;;;;;;5031338;28;20081;-54
2022/12/21 06:39:20;;;;;;;33.88;20.38;;;9.10;99.90;;;;;;5031510;28;20408;-47
2022/12/21 06:41:45;;;;;;;27.70;18.55;;;9.10;99.90;;;;;;5031055;28;20036;-51
2022/12/21 06:44:11;;;;;;;24.48;18.33;;;9.10;99.90;;;;;;5030967;28;20029;-49
2022/12/21 06:46:36;;;;;;;20.58;16.85;;;9.10;99.90;;;;;;5031408;28;20029;-50
2022/12/21 06:49:02;;;;;;;22.55;17.13;;;9.20;99.90;;;;;;5031660;28;20030;-49
2022/12/21 06:51:27;;;;;;;22.45;16.90;;;9.20;99.90;;;;;;5030202;28;20033;-48
2022/12/21 06:53:53;;;;;;;28.13;17.42;;;9.10;99.90;;;;;;5030180;28;20079;-47
2022/12/21 06:56:22;;;;;;;23.42;16.67;;;9.10;99.90;;;;;;5031062;28;20350;-46
2022/12/21 06:58:52;;;;;;;21.17;16.08;;;9.20;99.90;;;;;;5031184;28;20033;-54
2022/12/21 07:01:24;;;;;;;26.45;18.58;;;9.10;99.90;;;;;;5031018;28;20037;-52
2022/12/21 07:03:49;;;;;;;23.05;17.33;;;9.10;99.90;;;;;;5030341;28;20036;-49
2022/12/21 07:06:16;;;;;;;25.17;16.52;;;9.20;99.90;;;;;;5013073;28;20026;-48
2022/12/21 07:08:42;;;;;;;25.48;16.75;;;9.20;99.90;;;;;;5030929;28;20029;-53
2022/12/21 07:11:16;;;;;;;27.17;17.55;;;9.20;99.90;;;;;;5031695;28;20136;-49
2022/12/21 07:13:43;;;;;;;26.38;17.10;;;9.20;99.90;;;;;;5030387;28;20021;-47
2022/12/21 07:16:10;;;;;;;28.30;16.98;;;9.20;99.90;;;;;;5031318;28;20054;-52
2022/12/21 07:18:37;;;;;;;23.35;16.35;;;9.20;99.90;;;;;;5031075;28;20029;-50
2022/12/21 07:21:06;;;;;;;26.25;17.40;;;9.20;99.90;;;;;;5030996;28;20386;-48
2022/12/21 07:23:34;;;;;;;27.10;16.35;;;9.20;99.90;;;;;;5030322;28;20036;-50
2022/12/21 07:26:00;;;;;;;22.58;16.85;;;9.20;99.90;;;;;;5030994;28;20040;-47
2022/12/21 07:28:26;;;;;;;23.35;17.13;;;9.10;99.90;;;;;;5031151;28;20112;-49
2022/12/21 07:31:01;;;;;;;24.33;17.83;;;9.10;99.90;;;;;;5031169;28;20053;-53
2022/12/21 07:33:26;;;;;;;27.27;17.33;;;9.10;99.90;;;;;;5030780;28;20068;-51
2022/12/21 07:36:00;;;;;;;24.88;17.73;;;9.10;99.90;;;;;;5030815;28;20482;-48
2022/12/21 07:38:27;;;;;;;25.73;17.27;;;9.10;99.90;;;;;;5031071;28;20444;-48
2022/12/21 07:40:56;;;;;;;22.63;17.30;;;9.10;99.90;;;;;;5030866;28;20025;-51
2022/12/21 07:43:21;;;;;;;32.60;18.45;;;9.10;99.90;;;;;;5030292;28;20097;-47
2022/12/21 07:45:46;;;;;;;26.25;16.35;;;9.10;99.90;;;;;;5013056;28;20441;-49
2022/12/21 07:48:12;;;;;;;24.63;18.45;;;9.10;99.90;;;;;;5030555;28;20104;-51
2022/12/21 07:50:38;;;;;;;25.77;17.45;;;9.20;99.90;;;;;;5029027;28;20033;-48
2022/12/21 07:53:03;;;;;;;30.45;18.77;;;9.20;99.90;;;;;;5030069;28;20053;-47
2022/12/21 07:55:30;;;;;;;22.75;17.73;;;9.20;99.90;;;;;;5031151;28;20080;-47
2022/12/21 07:57:56;;;;;;;30.80;18.15;;;9.20;99.90;;;;;;5030607;28;20108;-47
2022/12/21 08:00:22;;;;;;;23.90;17.50;;;9.20;99.90;;;;;;5030683;28;20423;-47
2022/12/21 08:02:48;;;;;;;28.33;17.67;;;9.20;99.90;;;;;;5030052;28;20163;-48
2022/12/21 08:05:13;;;;;;;27.20;17.73;;;9.20;99.90;;;;;;5033437;28;20086;-46
2022/12/21 08:07:39;;;;;;;33.15;19.65;;;9.20;99.90;;;;;;5034019;28;20104;-47
2022/12/21 08:10:05;;;;;;;24.65;18.00;;;9.20;99.90;;;;;;5016559;28;20017;-46
2022/12/21 08:12:31;;;;;;;24.40;16.80;;;9.30;99.90;;;;;;5033449;28;20056;-50
2022/12/21 08:14:57;;;;;;;22.50;16.92;;;9.20;99.90;;;;;;5034349;28;20022;-44
2022/12/21 08:17:22;;;;;;;33.75;18.38;;;9.20;99.90;;;;;;5034040;28;20025;-49
2022/12/21 08:19:48;;;;;;;24.73;17.83;;;9.20;99.90;;;;;;5034151;28;20021;-47
2022/12/21 08:22:13;;;;;;;29.67;17.58;;;9.20;99.90;;;;;;5033282;28;20071;-45
2022/12/21 08:24:39;;;;;;;23.55;17.08;;;9.30;99.90;;;;;;5034163;28;20028;-47
2022/12/21 08:27:05;;;;;;;26.02;18.02;;;9.20;99.90;;;;;;5034077;28;20072;-48
2022/12/21 08:29:31;;;;;;;24.52;16.50;;;9.30;99.90;;;;;;5033990;28;20018;-50
2022/12/21 08:31:57;;;;;;;21.77;16.25;;;9.30;99.90;;;;;;5033522;28;20024;-49
2022/12/21 08:34:22;;;;;;;21.33;15.55;;;9.30;99.90;;;;;;5015855;28;20108;-49
2022/12/21 08:36:48;;;;;;;21.17;15.30;;;9.30;99.90;;;;;;5034071;28;20026;-48
2022/12/21 08:39:13;;;;;;;22.42;15.40;;;9.30;99.90;;;;;;5033889;28;20101;-50
2022/12/21 08:41:39;;;;;;;21.02;14.45;;;9.30;99.90;;;;;;5034162;28;20030;-48
2022/12/21 08:44:05;;;;;;;21.25;14.80;;;9.30;99.90;;;;;;5033166;28;20096;-50
2022/12/21 08:46:32;;;;;;;21.90;14.02;;;9.30;99.90;;;;;;5033572;28;20030;-49
2022/12/21 08:48:58;;;;;;;19.45;14.10;;;9.40;99.90;;;;;;5033352;28;20393;-51
2022/12/21 08:51:23;;;;;;;19.33;13.90;;;9.40;99.90;;;;;;5032354;28;20017;-51
2022/12/21 08:53:49;;;;;;;20.98;13.63;;;9.40;99.90;;;;;;5032609;28;20022;-50
2022/12/21 08:56:14;;;;;;;19.25;13.88;;;9.40;99.90;;;;;;5033126;28;20401;-48
2022/12/21 08:58:40;;;;;;;21.65;13.48;;;9.50;99.90;;;;;;5033452;28;20105;-49
2022/12/21 09:01:05;;;;;;;17.85;12.70;;;9.50;99.90;;;;;;5033090;28;20029;-51
2022/12/21 09:03:31;;;;;;;20.27;13.88;;;9.50;99.90;;;;;;5032519;28;20034;-52
2022/12/21 09:05:59;;;;;;;18.50;13.27;;;9.60;99.90;;;;;;5033199;28;20037;-46
2022/12/21 09:08:25;;;;;;;18.92;11.90;;;9.60;99.90;;;;;;5032757;28;20026;-45
2022/12/21 09:11:02;;;;;;;19.25;12.98;;;9.60;99.90;;;;;;5032873;28;20029;-51
2022/12/21 09:13:28;;;;;;;19.13;12.10;;;9.60;99.90;;;;;;5032192;28;20039;-49
2022/12/21 09:15:53;;;;;;;21.50;12.15;;;9.70;99.90;;;;;;5014976;28;20116;-49
2022/12/21 09:18:19;;;;;;;17.92;12.82;;;9.70;99.90;;;;;;5032874;28;20033;-48
2022/12/21 09:20:44;;;;;;;14.75;11.63;;;9.70;99.90;;;;;;5032992;28;20087;-49
2022/12/21 09:23:10;;;;;;;17.98;12.05;;;9.70;99.90;;;;;;5031992;28;20405;-52
2022/12/21 09:25:37;;;;;;;14.40;11.10;;;9.70;99.90;;;;;;5032728;28;20379;-48
2022/12/21 09:28:02;;;;;;;14.93;10.02;;;9.70;99.90;;;;;;5032687;28;20075;-48
2022/12/21 09:30:29;;;;;;;12.80;10.80;;;9.80;99.90;;;;;;5030494;28;20022;-54
2022/12/21 09:32:55;;;;;;;12.32;10.27;;;9.80;99.90;;;;;;5031867;28;20555;-52
2022/12/21 09:35:22;;;;;;;14.75;10.82;;;9.70;99.90;;;;;;5013881;28;20041;-51
2022/12/21 09:37:47;;;;;;;14.20;10.52;;;9.70;99.90;;;;;;5012090;28;20044;-50
2022/12/21 09:40:14;;;;;;;15.32;11.63;;;9.80;99.90;;;;;;5014069;28;20032;-46
2022/12/21 09:43:14;;;;;;;15.35;10.50;;;9.90;99.90;;;;;;5011860;28;20040;-48
2022/12/21 09:45:50;;;;;;;13.88;11.02;;;9.90;99.90;;;;;;5018823;28;20037;-52
2022/12/21 09:48:21;;;;;;;16.92;11.40;;;9.90;99.90;;;;;;5032141;28;20034;-47
2022/12/21 09:51:09;;;;;;;17.42;11.20;;;9.90;99.90;;;;;;5027447;28;20532;-49
2022/12/21 09:53:41;;;;;;;15.85;11.38;;;10.00;99.90;;;;;;5017222;28;20110;-50
2022/12/21 09:56:10;;;;;;;14.32;11.70;;;10.00;99.90;;;;;;5003150;28;20034;-51
2022/12/21 09:58:42;;;;;;;14.63;11.15;;;10.10;99.90;;;;;;5011952;28;20026;-49
2022/12/21 10:01:23;;;;;;;15.93;11.68;;;10.10;99.90;;;;;;5004045;28;20456;-48
2022/12/21 10:04:46;;;;;;;16.63;10.32;;;10.30;99.90;;;;;;5013490;28;20029;-50
2022/12/21 10:07:37;;;;;;;15.10;10.48;;;10.40;99.90;;;;;;4932239;29;20043;-49
2022/12/21 10:10:30;;;;;;;16.08;9.73;;;10.50;99.90;;;;;;4932569;29;20604;-50
2022/12/21 10:13:28;;;;;;;11.82;9.60;;;10.50;99.90;;;;;;5026090;28;20063;-47
2022/12/21 10:16:12;;;;;;;15.38;9.48;;;10.50;99.90;;;;;;5031265;28;20095;-50
2022/12/21 10:18:44;;;;;;;10.95;9.18;;;10.50;99.90;;;;;;5031978;28;20033;-50
2022/12/21 10:21:20;;;;;;;13.07;9.10;;;10.60;99.90;;;;;;5013802;28;20030;-51
2022/12/21 10:23:50;;;;;;;13.23;8.65;;;10.50;99.90;;;;;;5029771;28;20045;-60
2022/12/21 10:26:20;;;;;;;13.10;9.80;;;10.50;99.90;;;;;;5032130;28;20037;-50
2022/12/21 10:28:49;;;;;;;14.65;9.20;;;10.60;99.90;;;;;;5030989;28;20029;-54
2022/12/21 10:31:35;;;;;;;12.52;9.07;;;10.70;99.90;;;;;;5030081;28;20021;-50
2022/12/21 10:34:05;;;;;;;17.70;9.10;;;10.70;99.90;;;;;;5030902;28;20448;-48
2022/12/21 10:36:36;;;;;;;13.75;7.85;;;11.00;99.90;;;;;;5031315;28;20034;-45
2022/12/21 10:39:08;;;;;;;11.02;7.45;;;11.20;99.90;;;;;;5031596;28;20037;-46
2022/12/21 10:41:38;;;;;;;8.68;7.22;;;11.20;99.90;;;;;;5018203;28;20025;-51
2022/12/21 10:44:04;;;;;;;8.32;7.50;;;11.30;99.90;;;;;;5029020;28;20090;-52
2022/12/21 10:46:35;;;;;;;9.45;7.28;;;11.20;99.90;;;;;;5028956;28;20026;-56
2022/12/21 10:49:18;;;;;;;12.80;6.95;;;11.20;99.90;;;;;;5011611;28;20029;-50
2022/12/21 10:51:43;;;;;;;10.23;7.13;;;11.10;99.90;;;;;;5014395;28;20398;-48
2022/12/21 10:54:10;;;;;;;9.57;7.53;;;11.00;99.90;;;;;;4994556;28;20022;-49
2022/12/21 10:56:49;;;;;;;8.70;7.70;;;11.00;99.90;;;;;;5012089;28;20385;-50
2022/12/21 10:59:23;;;;;;;12.52;7.80;;;11.00;99.90;;;;;;5011796;28;20029;-47
2022/12/21 11:01:50;;;;;;;14.52;7.80;;;11.00;99.90;;;;;;5012175;28;20516;-53
2022/12/21 11:04:31;;;;;;;12.50;9.50;;;11.00;99.90;;;;;;5010856;28;20034;-49
2022/12/21 11:06:58;;;;;;;11.88;9.05;;;10.90;99.90;;;;;;5018912;28;20028;-43
2022/12/21 11:09:53;;;;;;;12.15;8.93;;;10.90;99.90;;;;;;5030964;28;20021;-51
2022/12/21 11:12:23;;;;;;;12.15;9.45;;;10.90;99.90;;;;;;5024441;28;20083;-48
2022/12/21 11:14:50;;;;;;;12.85;9.52;;;10.90;99.90;;;;;;5017945;28;20057;-46
2022/12/21 11:17:26;;;;;;;12.23;8.93;;;10.90;99.90;;;;;;5020530;28;20382;-45
2022/12/21 11:20:28;;;;;;;15.35;10.85;;;10.90;99.90;;;;;;5013366;28;20026;-46
2022/12/21 11:23:01;;;;;;;15.73;10.48;;;10.90;99.90;;;;;;4972730;28;20065;-41
2022/12/21 11:25:29;;;;;;;15.68;10.30;;;11.10;99.90;;;;;;5022294;28;20025;-50
2022/12/21 11:27:59;;;;;;;11.15;9.63;;;11.20;99.90;;;;;;5031372;28;20025;-45
2022/12/21 11:30:31;;;;;;;11.02;8.65;;;11.30;99.90;;;;;;5013654;28;20632;-50
2022/12/21 11:32:59;;;;;;;11.35;8.25;;;11.30;99.90;;;;;;5030695;28;20018;-46
2022/12/21 11:35:27;;;;;;;13.77;9.13;;;11.30;99.90;;;;;;5031401;28;20014;-48
2022/12/21 11:38:02;;;;;;;10.57;8.68;;;11.30;99.90;;;;;;5010283;28;20198;-46
2022/12/21 11:40:30;;;;;;;15.85;8.27;;;11.30;99.90;;;;;;4997286;28;20121;-48
2022/12/21 11:43:14;;;;;;;12.05;8.35;;;11.30;99.90;;;;;;5014211;28;20026;-50
2022/12/21 11:45:48;;;;;;;13.50;8.20;;;11.20;99.90;;;;;;5015570;28;20108;-51
2022/12/21 11:48:19;;;;;;;13.15;8.68;;;11.20;99.90;;;;;;5014969;28;20033;-49
2022/12/21 11:51:21;;;;;;;12.23;8.63;;;11.20;99.90;;;;;;5035614;28;20552;-46
2022/12/21 11:54:28;;;;;;;10.00;9.05;;;11.20;99.90;;;;;;5034006;28;20108;-45
2022/12/21 11:57:06;;;;;;;;;;;11.10;99.90;;;;;;5035059;28;20026;-48
2022/12/21 11:59:43;;;;;;;22.77;15.45;;;11.10;99.90;;;;;;5035077;28;19999;-46
2022/12/21 12:02:29;;;;;;;15.98;11.23;;;11.10;99.90;;;;;;5034299;28;20029;-48
2022/12/21 12:05:27;;;;;;;21.48;10.63;;;11.10;99.90;;;;;;5035541;28;20021;-46
2022/12/21 12:08:03;;;;;;;11.60;10.40;;;11.20;99.90;;;;;;4990348;28;20044;-45
2022/12/21 12:10:39;;;;;;;11.10;9.48;;;11.20;99.90;;;;;;5033457;28;20017;-48
2022/12/21 12:13:11;;;;;;;13.35;10.07;;;11.20;99.90;;;;;;5030301;28;20393;-46
2022/12/21 12:16:00;;;;;;;11.45;9.88;;;11.30;99.90;;;;;;5030322;28;20116;-43
2022/12/21 12:18:49;;;;;;;16.02;9.57;;;11.30;99.90;;;;;;5029344;28;20021;-47
2022/12/21 12:21:29;;;;;;;12.35;9.40;;;11.30;99.90;;;;;;5013688;28;20038;-46
2022/12/21 12:24:16;;;;;;;14.15;10.05;;;11.30;99.90;;;;;;5012766;28;20022;-42
2022/12/21 12:27:20;;;;;;;15.07;10.38;;;11.30;99.90;;;;;;5014242;28;20053;-46
2022/12/21 12:30:05;;;;;;;12.38;8.98;;;11.20;99.90;;;;;;5031247;28;20034;-47
2022/12/21 12:33:15;;;;;;;13.13;9.10;;;11.20;99.90;;;;;;5029936;28;20026;-45
2022/12/21 12:36:04;;;;;;;9.50;8.10;;;11.20;99.90;;;;;;5030525;28;20128;-42
2022/12/21 12:38:54;;;;;;;11.35;8.95;;;11.20;99.90;;;;;;5034165;28;20032;-47
2022/12/21 12:41:36;;;;;;;15.38;8.73;;;11.20;99.90;;;;;;5033994;28;20025;-43
2022/12/21 12:44:20;;;;;;;12.15;9.00;;;11.10;99.90;;;;;;5033859;28;20091;-44
2022/12/21 12:47:10;;;;;;;14.48;7.82;;;11.10;99.90;;;;;;5032895;28;20120;-42
2022/12/21 12:49:39;;;;;;;10.57;7.80;;;11.10;99.90;;;;;;5034179;28;20029;-41
2022/12/21 12:52:20;;;;;;;24.58;8.70;;;11.10;99.90;;;;;;5013683;28;20408;-48
2022/12/21 12:54:59;;;;;;;9.57;8.20;;;11.10;99.90;;;;;;5033752;28;20396;-42
2022/12/21 12:57:42;;;;;;;10.85;7.70;;;11.10;99.90;;;;;;5033695;28;20036;-47
2022/12/21 13:00:14;;;;;;;13.55;8.25;;;11.10;99.90;;;;;;5033663;28;20104;-49
2022/12/21 13:03:09;;;;;;;9.73;7.65;;;11.10;99.90;;;;;;5032489;28;20025;-44
2022/12/21 13:05:40;;;;;;;11.73;7.90;;;11.10;99.90;;;;;;5033969;28;20021;-44
2022/12/21 13:08:25;;;;;;;10.77;7.13;;;11.10;99.90;;;;;;5033259;28;20060;-43
2022/12/21 13:11:05;;;;;;;8.25;7.45;;;11.10;99.90;;;;;;5033369;28;20489;-43
2022/12/21 13:13:49;;;;;;;9.43;7.07;;;11.10;99.90;;;;;;5032542;28;20116;-42
2022/12/21 13:16:30;;;;;;;10.38;7.60;;;11.10;99.90;;;;;;5033233;28;20022;-44
2022/12/21 13:19:04;;;;;;;11.77;8.35;;;11.10;99.90;;;;;;5033136;28;20112;-45
2022/12/21 13:21:33;;;;;;;16.85;8.20;;;11.10;99.90;;;;;;5041704;23;20053;-52
2022/12/21 13:24:09;;;;;;;10.98;7.97;;;11.10;99.90;;;;;;5013730;28;20025;-55